Kaiwo Maru — JMMU — position and weather

sailwx.info

Track history (hours):
 
Tides and Currents Weather Stations Pressure Air Temp Water Temp Dewpoint Dewpoint Depression Visibility Wind Speed Wind Dir Waves Ship Positions

Kaiwo Maru (Japan)

Built in 1989. Trains merchant marine cadets for Japan's National Institute for Sea Training.

Ship's website: http://www.kohkun.go.jp/en/ships/kaiwomaru.html

Last reported at 2018-Jan-12 14:50 UTC. Time now 2018-Jan-20 07:25 UTC.
Position N 34°27' E 138°54'.

Length 110.1 m; beam 13.8 m; draft 6 m.

Type: Sailing vessel. MMSI: 431006000.

Date/timePositionNaut miles runAvg speedWind from/ knotsBaromVisibWave heightAir tempDewpointWater temp
2018-Jan-12 14:50N 34°27' E 138°54'3 9.0
2018-Jan-12 14:30N 34°29' E 138°57'4 8.8
2018-Jan-12 14:00N 34°31' E 139°01'5 9.1
2018-Jan-12 13:30N 34°36' E 139°03'5 9.7
2018-Jan-12 12:59N 34°40' E 139°05'510.1
2018-Jan-12 12:30N 34°44' E 139°09'510.2
2018-Jan-12 11:59N 34°48' E 139°13'5 9.3
2018-Jan-12 11:25N 34°52' E 139°18'5 8.5
2018-Jan-12 10:47N 34°55' E 139°23'3 7.9
2018-Jan-12 10:27N 34°56' E 139°26'4 8.3
2018-Jan-12 10:00N 34°58' E 139°30'5 8.6
2018-Jan-12 09:28N 35°01' E 139°34'510.1
2018-Jan-12 09:01N 35°04' E 139°39'510.3
2018-Jan-12 08:30N 35°07' E 139°44'510.1
2018-Jan-12 08:00N 35°12' E 139°46'5 9.6
2018-Jan-12 07:30N 35°16' E 139°45'5 9.8
2018-Jan-12 07:00N 35°21' E 139°43'5 9.2
2018-Jan-12 06:31N 35°25' E 139°44'510.1
2018-Jan-12 06:01N 35°28' E 139°49'5 9.9
2018-Jan-12 05:29N 35°33' E 139°53'2 0.2
2018-Jan-11 15:23N 35°35' E 139°53'0 0.0
2018-Jan-11 09:29N 35°35' E 139°53'0 0.0
2018-Jan-11 02:17N 35°35' E 139°53'0 0.0
2018-Jan-10 16:41N 35°35' E 139°53'0 0.0
2018-Jan-10 16:20N 35°35' E 139°53'0 0.0
2018-Jan-10 14:41N 35°35' E 139°53'0 0.0
2018-Jan-10 14:17N 35°35' E 139°53'0 0.0
2018-Jan-10 13:56N 35°35' E 139°53'0 0.0
2018-Jan-10 13:17N 35°35' E 139°53'0 0.0
2018-Jan-09 19:57N 35°35' E 139°53'0 0.1
2018-Jan-09 19:15N 35°35' E 139°53'0 0.0
2018-Jan-09 18:57N 35°35' E 139°53'0 0.0
2018-Jan-09 16:54N 35°35' E 139°53'0 0.0
2018-Jan-09 16:30N 35°35' E 139°53'0 0.0
2018-Jan-09 15:51N 35°35' E 139°53'0 0.0
2018-Jan-09 15:27N 35°35' E 139°53'0 0.0
2018-Jan-09 14:18N 35°35' E 139°53'0 0.0
2018-Jan-09 13:21N 35°35' E 139°53'0 0.0
2018-Jan-09 12:54N 35°35' E 139°53'0 0.0
2018-Jan-09 10:30N 35°35' E 139°53'0 0.0
2018-Jan-09 08:57N 35°35' E 139°53'0 0.0
2018-Jan-09 06:24N 35°35' E 139°52'2 3.7
2018-Jan-09 05:59N 35°36' E 139°51'3 0.5
2018-Jan-09 00:14N 35°38' E 139°48'0 0.0
2018-Jan-07 13:11N 35°38' E 139°48'0 0.0
2018-Jan-05 14:47N 35°38' E 139°48'0 0.0
2018-Jan-05 14:29N 35°38' E 139°48'0 0.0
2018-Jan-05 13:02N 35°38' E 139°48'0 0.2
2018-Jan-05 12:59N 35°38' E 139°48'0 0.0
2018-Jan-05 12:29N 35°38' E 139°48'0 0.0
2018-Jan-05 09:05N 35°38' E 139°48'0 0.0
2018-Jan-05 04:47N 35°38' E 139°48'0 0.0
2018-Jan-05 04:14N 35°38' E 139°48'0 0.0
2018-Jan-04 23:44N 35°38' E 139°48'0 0.0
2018-Jan-04 06:11N 35°38' E 139°48'0 0.0
2018-Jan-03 09:17N 35°38' E 139°48'0 0.0
2018-Jan-03 08:59N 35°38' E 139°48'0 0.0
2018-Jan-03 00:05N 35°38' E 139°48'  
Track history (hours):
 
Tides and Currents Weather Stations Pressure Air Temp Water Temp Dewpoint Dewpoint Depression Visibility Wind Speed Wind Dir Waves Ship Positions

Kaiwo Maru (Japan)

Built in 1989. Trains merchant marine cadets for Japan's National Institute for Sea Training.

Ship's website: http://www.kohkun.go.jp/en/ships/kaiwomaru.html

Last reported at 2018-Jan-12 14:50 UTC. Time now 2018-Jan-20 07:25 UTC.
Position N 34°27' E 138°54'.

Length 110.1 m; beam 13.8 m; draft 6 m.

Type: Sailing vessel. MMSI: 431006000.

Date/timePositionNaut miles runAvg speedWind from/ knotsBaromVisibWave heightAir tempDewpointWater temp
2018-Jan-12 14:50N 34°27' E 138°54'3 9.0
2018-Jan-12 14:30N 34°29' E 138°57'4 8.8
2018-Jan-12 14:00N 34°31' E 139°01'5 9.1
2018-Jan-12 13:30N 34°36' E 139°03'5 9.7
2018-Jan-12 12:59N 34°40' E 139°05'510.1
2018-Jan-12 12:30N 34°44' E 139°09'510.2
2018-Jan-12 11:59N 34°48' E 139°13'5 9.3
2018-Jan-12 11:25N 34°52' E 139°18'5 8.5
2018-Jan-12 10:47N 34°55' E 139°23'3 7.9
2018-Jan-12 10:27N 34°56' E 139°26'4 8.3
2018-Jan-12 10:00N 34°58' E 139°30'5 8.6
2018-Jan-12 09:28N 35°01' E 139°34'510.1
2018-Jan-12 09:01N 35°04' E 139°39'510.3
2018-Jan-12 08:30N 35°07' E 139°44'510.1
2018-Jan-12 08:00N 35°12' E 139°46'5 9.6
2018-Jan-12 07:30N 35°16' E 139°45'5 9.8
2018-Jan-12 07:00N 35°21' E 139°43'5 9.2
2018-Jan-12 06:31N 35°25' E 139°44'510.1
2018-Jan-12 06:01N 35°28' E 139°49'5 9.9
2018-Jan-12 05:29N 35°33' E 139°53'2 0.2
2018-Jan-11 15:23N 35°35' E 139°53'0 0.0
2018-Jan-11 09:29N 35°35' E 139°53'0 0.0
2018-Jan-11 02:17N 35°35' E 139°53'0 0.0
2018-Jan-10 16:41N 35°35' E 139°53'0 0.0
2018-Jan-10 16:20N 35°35' E 139°53'0 0.0
2018-Jan-10 14:41N 35°35' E 139°53'0 0.0
2018-Jan-10 14:17N 35°35' E 139°53'0 0.0
2018-Jan-10 13:56N 35°35' E 139°53'0 0.0
2018-Jan-10 13:17N 35°35' E 139°53'0 0.0
2018-Jan-09 19:57N 35°35' E 139°53'0 0.1
2018-Jan-09 19:15N 35°35' E 139°53'0 0.0
2018-Jan-09 18:57N 35°35' E 139°53'0 0.0
2018-Jan-09 16:54N 35°35' E 139°53'0 0.0
2018-Jan-09 16:30N 35°35' E 139°53'0 0.0
2018-Jan-09 15:51N 35°35' E 139°53'0 0.0
2018-Jan-09 15:27N 35°35' E 139°53'0 0.0
2018-Jan-09 14:18N 35°35' E 139°53'0 0.0
2018-Jan-09 13:21N 35°35' E 139°53'0 0.0
2018-Jan-09 12:54N 35°35' E 139°53'0 0.0
2018-Jan-09 10:30N 35°35' E 139°53'0 0.0
2018-Jan-09 08:57N 35°35' E 139°53'0 0.0
2018-Jan-09 06:24N 35°35' E 139°52'2 3.7
2018-Jan-09 05:59N 35°36' E 139°51'3 0.5
2018-Jan-09 00:14N 35°38' E 139°48'0 0.0
2018-Jan-07 13:11N 35°38' E 139°48'0 0.0
2018-Jan-05 14:47N 35°38' E 139°48'0 0.0
2018-Jan-05 14:29N 35°38' E 139°48'0 0.0
2018-Jan-05 13:02N 35°38' E 139°48'0 0.2
2018-Jan-05 12:59N 35°38' E 139°48'0 0.0
2018-Jan-05 12:29N 35°38' E 139°48'0 0.0
2018-Jan-05 09:05N 35°38' E 139°48'0 0.0
2018-Jan-05 04:47N 35°38' E 139°48'0 0.0
2018-Jan-05 04:14N 35°38' E 139°48'0 0.0
2018-Jan-04 23:44N 35°38' E 139°48'0 0.0
2018-Jan-04 06:11N 35°38' E 139°48'0 0.0
2018-Jan-03 09:17N 35°38' E 139°48'0 0.0
2018-Jan-03 08:59N 35°38' E 139°48'0 0.0
2018-Jan-03 00:05N 35°38' E 139°48'  

Dump ship's entire track history